Time;durP1;ratioP1;P1;durP2;ratioP2;P2;SDS_P1;SDS_P2;PMS_P1;PMS_P2;Temp;Humidity;BMP_temperature;BMP_pressure;BME280_temperature;BME280_humidity;BME280_pressure;Samples;Min_cycle;Max_cycle;Signal;HPM_P1;HPM_P2
2022/11/13 00:00:01;;;;;;;;;67.00;50.75;;;;;11.61;100.00;102188.53;5017232;28;45384;-74
2022/11/13 00:02:27;;;;;;;;;60.75;48.25;;;;;11.61;100.00;102194.75;4997142;28;45388;-73
2022/11/13 00:04:52;;;;;;;;;62.25;49.75;;;;;11.61;100.00;102196.47;5018144;28;46587;-73
2022/11/13 00:07:17;;;;;;;;;62.00;46.50;;;;;11.60;100.00;102186.75;5013800;28;45393;-75
2022/11/13 00:09:43;;;;;;;;;60.75;47.25;;;;;11.59;100.00;102191.16;5014205;28;61625;-73
2022/11/13 00:12:08;;;;;;;;;62.00;47.25;;;;;11.57;100.00;102184.03;5009250;28;55066;-75
2022/11/13 00:14:33;;;;;;;;;62.25;45.25;;;;;11.57;100.00;102184.94;5016560;28;45834;-74
2022/11/13 00:16:59;;;;;;;;;60.00;46.00;;;;;11.58;100.00;102191.13;5004102;28;62669;-75
2022/11/13 00:19:24;;;;;;;;;55.50;43.50;;;;;11.54;100.00;102192.78;5028321;28;45489;-75
2022/11/13 00:21:49;;;;;;;;;58.75;43.75;;;;;11.55;100.00;102190.16;5002310;28;49739;-74
2022/11/13 00:24:15;;;;;;;;;57.00;41.00;;;;;11.52;100.00;102176.88;5014271;28;68087;-75
2022/11/13 00:26:41;;;;;;;;;52.75;41.75;;;;;11.54;100.00;102184.84;5010472;28;62758;-74
2022/11/13 00:29:07;;;;;;;;;49.75;38.25;;;;;11.55;100.00;102183.97;5021033;28;45495;-74
2022/11/13 00:31:33;;;;;;;;;48.25;39.50;;;;;11.54;100.00;102185.72;5018491;28;45591;-74
2022/11/13 00:33:59;;;;;;;;;55.00;41.50;;;;;11.52;100.00;102182.16;5020618;28;61667;-74
2022/11/13 00:36:26;;;;;;;;;53.25;39.50;;;;;11.49;100.00;102170.59;5035782;28;45568;-74
2022/11/13 00:38:51;;;;;;;;;49.75;38.00;;;;;11.49;100.00;102170.59;5033761;28;45497;-73
2022/11/13 00:41:17;;;;;;;;;53.75;40.50;;;;;11.47;100.00;102167.91;5027296;28;46565;-76
2022/11/13 00:43:42;;;;;;;;;52.00;40.00;;;;;11.47;100.00;102170.53;5032604;28;66941;-76
2022/11/13 00:46:08;;;;;;;;;45.75;37.50;;;;;11.45;100.00;102161.69;5046134;28;66601;-74
2022/11/13 00:48:34;;;;;;;;;51.00;38.50;;;;;11.43;100.00;102160.72;5027679;28;45801;-76
2022/11/13 00:50:59;;;;;;;;;48.00;37.50;;;;;11.41;100.00;102157.16;5046857;28;45624;-74
2022/11/13 00:53:25;;;;;;;;;46.25;39.75;;;;;11.40;100.00;102155.38;5045263;28;46241;-74
2022/11/13 00:55:50;;;;;;;;;44.00;31.25;;;;;11.39;100.00;102148.25;5032254;28;58293;-73
2022/11/13 00:58:16;;;;;;;;;47.00;40.50;;;;;11.40;100.00;102149.16;5025247;28;45633;-74
2022/11/13 01:00:43;;;;;;;;;53.50;39.50;;;;;11.37;100.00;102134.09;5036051;28;45485;-75
2022/11/13 01:03:08;;;;;;;;;56.00;41.25;;;;;11.33;100.00;102137.50;5035160;28;46811;-74
2022/11/13 01:05:37;;;;;;;;;50.50;37.50;;;;;11.33;100.00;102128.69;5049860;28;45304;-74
2022/11/13 01:08:03;;;;;;;;;48.75;38.00;;;;;11.30;100.00;102118.94;5033481;28;45459;-75
2022/11/13 01:10:29;;;;;;;;;51.00;38.75;;;;;11.32;100.00;102126.91;5033481;28;45526;-74
2022/11/13 01:12:54;;;;;;;;;50.50;38.50;;;;;11.28;100.00;102117.97;5035972;28;46090;-73
2022/11/13 01:15:20;;;;;;;;;43.75;36.75;;;;;11.25;100.00;102112.63;5032390;28;59013;-75
2022/11/13 01:17:45;;;;;;;;;48.25;38.25;;;;;11.24;100.00;102113.47;5034935;28;55042;-75
2022/11/13 01:20:11;;;;;;;;;46.50;38.00;;;;;11.19;100.00;102100.13;5035558;28;45439;-74
2022/11/13 01:22:36;;;;;;;;;42.50;36.50;;;;;11.18;100.00;102110.63;5033889;28;45499;-74
2022/11/13 01:25:02;;;;;;;;;49.00;37.00;;;;;11.16;100.00;102107.06;5033480;28;63268;-74
2022/11/13 01:27:28;;;;;;;;;45.25;36.50;;;;;11.14;100.00;102106.13;5032123;28;45522;-73
2022/11/13 01:29:53;;;;;;;;;52.75;38.50;;;;;11.13;100.00;102104.31;5030240;28;58417;-73
2022/11/13 01:32:18;;;;;;;;;40.25;36.50;;;;;11.11;100.00;102108.66;5025633;28;54359;-73
2022/11/13 01:34:43;;;;;;;;;48.00;36.75;;;;;11.13;100.00;102096.38;5240532;22;63207;-74
2022/11/13 01:37:09;;;;;;;;;43.00;34.00;;;;;11.12;100.00;102095.47;5115399;27;56590;-75
2022/11/13 01:39:34;;;;;;;;;43.25;38.00;;;;;11.10;100.00;102088.38;5116081;27;45416;-74
2022/11/13 01:42:00;;;;;;;;;43.50;34.00;;;;;11.11;100.00;102085.75;5117235;27;64572;-75
2022/11/13 01:44:46;;;;;;;;;44.50;36.25;;;;;11.09;100.00;102083.94;5104174;27;66822;-73
2022/11/13 01:47:11;;;;;;;;;53.25;41.50;;;;;11.10;100.00;102096.31;5114868;27;45393;-73
2022/11/13 01:49:39;;;;;;;;;59.50;44.75;;;;;11.11;100.00;102092.81;5091435;27;54391;-73
2022/11/13 01:52:09;;;;;;;;;53.50;42.50;;;;;11.09;100.00;102098.06;5087162;27;46923;-74
2022/11/13 01:54:44;;;;;;;;;65.75;50.75;;;;;11.09;100.00;102089.22;5094811;27;45425;-73
2022/11/13 01:57:09;;;;;;;;;63.50;48.25;;;;;11.08;100.00;102090.06;5096273;27;45422;-75
2022/11/13 01:59:38;;;;;;;;;65.00;51.00;;;;;11.07;100.00;102091.81;5103161;27;59440;-74
2022/11/13 02:02:03;;;;;;;;;65.50;48.50;;;;;11.02;100.00;102083.78;5118495;27;45993;-75
2022/11/13 02:04:29;;;;;;;;;67.00;49.25;;;;;11.02;100.00;102085.50;5114344;27;45519;-73
2022/11/13 02:06:56;;;;;;;;;67.75;53.50;;;;;11.01;100.00;102076.66;5118491;27;45282;-74
2022/11/13 02:09:33;;;;;;;;;63.50;50.00;;;;;10.96;100.00;102070.34;5118177;27;45402;-74
2022/11/13 02:11:59;;;;;;;;;64.75;50.75;;;;;10.96;100.00;102066.81;5108346;27;45300;-73
2022/11/13 02:14:26;;;;;;;;;67.00;52.50;;;;;10.92;100.00;102057.94;5107253;27;45769;-73
2022/11/13 02:16:56;;;;;;;;;67.00;50.75;;;;;10.92;100.00;102057.94;5115303;27;45400;-73
2022/11/13 02:19:28;;;;;;;;;72.00;52.75;;;;;10.87;100.00;102048.97;5102042;27;45523;-74
2022/11/13 02:21:54;;;;;;;;;70.75;54.00;;;;;10.88;100.00;102049.84;5100170;27;45759;-73
2022/11/13 02:24:30;;;;;;;;;67.75;54.00;;;;;10.87;100.00;102056.00;5118159;27;45369;-75
2022/11/13 02:26:59;;;;;;;;;72.00;53.00;;;;;10.84;100.00;102045.31;5092338;27;45444;-75
2022/11/13 02:29:25;;;;;;;;;70.75;53.75;;;;;10.81;100.00;102047.88;5102782;27;45327;-73
2022/11/13 02:31:50;;;;;;;;;73.50;55.50;;;;;10.80;100.00;102064.56;5116902;27;65589;-73
2022/11/13 02:34:15;;;;;;;;;67.50;54.00;;;;;10.75;100.00;102070.59;5117527;27;57069;-73
2022/11/13 02:36:41;;;;;;;;;70.00;53.50;;;;;10.75;100.00;102067.97;5117052;27;60026;-75
2022/11/13 02:39:08;;;;;;;;;67.25;52.25;;;;;10.71;100.00;102065.22;5106678;27;57876;-74
2022/11/13 02:41:34;;;;;;;;;70.50;53.75;;;;;10.70;100.00;102060.75;5113660;27;46883;-73
2022/11/13 02:43:59;;;;;;;;;70.25;54.25;;;;;10.67;100.00;102055.41;5116941;27;61509;-73
2022/11/13 02:46:25;;;;;;;;;68.00;52.75;;;;;10.66;100.00;102062.44;5116332;27;45626;-74
2022/11/13 02:48:50;;;;;;;;;70.75;54.50;;;;;10.64;100.00;102052.66;5098771;27;52962;-73
2022/11/13 02:51:15;;;;;;;;;72.25;55.00;;;;;10.61;100.00;102045.53;5100205;27;62051;-74
2022/11/13 02:53:41;;;;;;;;;69.75;53.25;;;;;10.60;100.00;102054.31;5117044;27;61379;-73
2022/11/13 02:56:06;;;;;;;;;63.25;51.25;;;;;10.59;100.00;102055.16;5117259;27;45307;-73
2022/11/13 02:58:32;;;;;;;;;67.75;51.25;;;;;10.58;100.00;102058.66;5117696;27;45373;-74
2022/11/13 03:01:00;;;;;;;;;67.50;51.25;;;;;10.55;100.00;102052.41;5117763;27;45680;-75
2022/11/13 03:03:25;;;;;;;;;63.75;51.25;;;;;10.55;100.00;102057.69;5106842;27;45216;-73
2022/11/13 03:05:51;;;;;;;;;65.75;51.75;;;;;10.54;100.00;102055.84;5114570;27;56783;-73
2022/11/13 03:08:16;;;;;;;;;57.25;45.25;;;;;10.54;100.00;102055.84;5099146;27;45385;-74
2022/11/13 03:10:42;;;;;;;;;53.00;39.00;;;;;10.52;100.00;102054.94;5089083;27;46015;-73
2022/11/13 03:13:07;;;;;;;;;49.50;38.50;;;;;10.54;100.00;102058.50;5116931;27;66064;-73
2022/11/13 03:15:33;;;;;;;;;46.00;38.75;;;;;10.51;100.00;102061.97;5113734;27;57321;-74
2022/11/13 03:18:03;;;;;;;;;48.00;38.50;;;;;10.53;100.00;102062.00;5097365;27;45353;-74
2022/11/13 03:20:29;;;;;;;;;44.00;35.25;;;;;10.51;100.00;102061.06;5101636;27;47100;-74
2022/11/13 03:22:54;;;;;;;;;45.25;34.75;;;;;10.52;100.00;102057.56;5117146;27;45246;-74
2022/11/13 03:25:19;;;;;;;;;40.25;34.25;;;;;10.52;100.00;102060.22;5116773;27;64707;-74
2022/11/13 03:27:44;;;;;;;;;36.75;32.75;;;;;10.55;100.00;102053.28;5116323;27;61413;-75
2022/11/13 03:30:10;;;;;;;;;42.75;36.25;;;;;10.56;100.00;102039.22;5116851;27;64466;-75
2022/11/13 03:32:36;;;;;;;;;28.75;28.25;;;;;10.56;100.00;102044.50;5116797;27;45202;-73
2022/11/13 03:35:01;;;;;;;;;44.75;36.00;;;;;10.54;100.00;102032.97;5114546;27;45297;-74
2022/11/13 03:37:26;;;;;;;;;33.25;23.75;;;;;10.58;100.00;102036.63;5117770;27;45348;-75
2022/11/13 03:39:52;;;;;;;;;42.75;35.25;;;;;10.57;100.00;102016.34;5115241;27;63145;-74
2022/11/13 03:42:17;;;;;;;;;41.25;30.25;;;;;10.58;100.00;102024.31;5116344;27;66298;-73
2022/11/13 03:44:42;;;;;;;;;40.75;33.25;;;;;10.62;100.00;102026.19;5113768;27;49277;-75
2022/11/13 03:47:08;;;;;;;;;39.00;34.75;;;;;10.66;100.00;102035.13;5116332;27;59400;-75
2022/11/13 03:49:33;;;;;;;;;40.50;33.00;;;;;10.68;100.00;102031.66;5115038;27;64248;-73
2022/11/13 03:51:58;;;;;;;;;47.50;35.50;;;;;10.70;100.00;102032.59;5107804;27;46572;-74
2022/11/13 03:54:24;;;;;;;;;34.50;32.00;;;;;10.72;100.00;102024.72;5115677;27;61787;-73
2022/11/13 03:56:49;;;;;;;;;44.75;36.25;;;;;10.72;100.00;102016.81;5116836;27;45379;-74
2022/11/13 03:59:14;;;;;;;;;33.50;30.75;;;;;10.72;100.00;102019.44;5115341;27;65237;-73
2022/11/13 04:01:40;;;;;;;;;38.00;31.75;;;;;10.73;100.00;102022.13;5116678;27;48058;-73
2022/11/13 04:04:05;;;;;;;;;37.50;33.25;;;;;10.75;100.00;102017.78;5114046;27;61010;-74
2022/11/13 04:06:30;;;;;;;;;41.00;32.75;;;;;10.77;100.00;102017.84;5116035;27;45293;-73
2022/11/13 04:08:56;;;;;;;;;35.00;31.75;;;;;10.80;100.00;102017.03;5116085;27;46885;-73
2022/11/13 04:11:21;;;;;;;;;36.25;30.75;;;;;10.81;100.00;102014.41;5116017;27;45352;-74
2022/11/13 04:13:47;;;;;;;;;33.75;26.00;;;;;10.85;100.00;102018.94;5116723;27;45289;-73
2022/11/13 04:16:12;;;;;;;;;32.75;27.00;;;;;10.87;100.00;102016.38;5114711;27;60338;-74
2022/11/13 04:18:37;;;;;;;;;35.75;31.00;;;;;10.89;100.00;102012.00;5115253;27;68674;-75
2022/11/13 04:21:03;;;;;;;;;32.75;27.00;;;;;10.89;100.00;101996.16;5115964;27;63166;-75
2022/11/13 04:23:29;;;;;;;;;37.25;27.50;;;;;10.91;100.00;102000.63;5132734;27;45528;-74
2022/11/13 04:25:55;;;;;;;;;29.25;26.25;;;;;10.91;100.00;102003.25;5114530;27;45293;-74
2022/11/13 04:28:21;;;;;;;;;33.00;25.00;;;;;10.94;100.00;102002.47;5118950;27;45275;-73
2022/11/13 04:30:46;;;;;;;;;32.75;27.75;;;;;10.97;100.00;102005.19;5119867;27;45345;-73
2022/11/13 04:33:12;;;;;;;;;37.75;27.00;;;;;10.94;100.00;101999.81;5118703;27;45455;-73
2022/11/13 04:35:37;;;;;;;;;34.00;28.00;;;;;10.98;100.00;101996.44;5119093;27;45230;-73
2022/11/13 04:38:03;;;;;;;;;30.50;22.00;;;;;10.99;100.00;102003.50;5119292;27;45612;-75
2022/11/13 04:40:28;;;;;;;;;22.00;19.00;;;;;10.98;100.00;101985.84;5118623;27;62639;-73
2022/11/13 04:42:54;;;;;;;;;23.50;19.25;;;;;11.04;100.00;101993.06;5114931;27;60281;-75
2022/11/13 04:45:21;;;;;;;;;23.75;16.00;;;;;11.06;100.00;101994.88;5118645;27;53860;-73
2022/11/13 04:47:47;;;;;;;;;19.25;17.00;;;;;11.08;100.00;101985.25;5114354;27;45878;-75
2022/11/13 04:50:13;;;;;;;;;20.50;17.25;;;;;11.10;100.00;101985.28;5116774;27;68948;-73
2022/11/13 04:52:38;;;;;;;;;16.00;15.25;;;;;11.12;100.00;101983.56;5119825;27;45513;-74
2022/11/13 04:55:04;;;;;;;;;17.50;17.00;;;;;11.16;100.00;101993.38;5119929;27;45490;-74
2022/11/13 04:57:30;;;;;;;;;21.25;15.50;;;;;11.18;100.00;101984.63;5127153;27;47811;-74
2022/11/13 04:59:55;;;;;;;;;18.25;16.00;;;;;11.18;100.00;101983.72;5118387;27;45210;-74
2022/11/13 05:02:20;;;;;;;;;21.25;15.50;;;;;11.20;100.00;101980.28;5117636;27;45258;-74
2022/11/13 05:04:46;;;;;;;;;19.75;17.50;;;;;11.25;100.00;101988.34;5119645;27;45595;-75
2022/11/13 05:07:11;;;;;;;;;16.75;15.00;;;;;11.27;100.00;101986.63;5119433;27;48744;-73
2022/11/13 05:09:36;;;;;;;;;17.50;14.75;;;;;11.27;100.00;101983.97;5118860;27;62728;-74
2022/11/13 05:12:06;;;;;;;;;27.00;16.00;;;;;11.27;100.00;101986.63;5118828;27;53693;-73
2022/11/13 05:14:32;;;;;;;;;22.75;21.00;;;;;11.29;100.00;101982.25;5118449;27;45666;-74
2022/11/13 05:16:58;;;;;;;;;22.75;17.00;;;;;11.28;100.00;101976.09;5118952;27;46718;-73
2022/11/13 05:19:23;;;;;;;;;26.50;20.75;;;;;11.30;100.00;101976.16;5117715;27;62867;-74
2022/11/13 05:21:48;;;;;;;;;20.00;16.50;;;;;11.32;100.00;101965.59;5119563;27;45348;-73
2022/11/13 05:24:14;;;;;;;;;20.50;18.00;;;;;11.32;100.00;101974.44;5118073;27;60306;-73
2022/11/13 05:26:39;;;;;;;;;20.25;17.50;;;;;11.31;100.00;101969.09;5119222;27;51459;-74
2022/11/13 05:29:05;;;;;;;;;21.75;17.75;;;;;11.32;100.00;101969.13;5118184;27;45180;-74
2022/11/13 05:31:30;;;;;;;;;24.25;19.75;;;;;11.29;100.00;101966.41;5118197;27;45555;-73
2022/11/13 05:33:56;;;;;;;;;24.50;17.50;;;;;11.26;100.00;101967.22;5118309;27;56939;-75
2022/11/13 05:36:22;;;;;;;;;19.75;17.50;;;;;11.28;100.00;101978.72;5118299;27;45544;-75
2022/11/13 05:38:48;;;;;;;;;20.00;16.50;;;;;11.27;100.00;101976.06;5099895;27;64699;-74
2022/11/13 05:41:14;;;;;;;;;21.50;17.25;;;;;11.26;100.00;101974.28;5117615;27;45507;-73
2022/11/13 05:43:40;;;;;;;;;22.50;18.75;;;;;11.26;100.00;101971.63;5100219;27;45655;-73
2022/11/13 05:46:12;;;;;;;;;21.50;19.00;;;;;11.25;100.00;101961.91;5100354;27;48474;-73
2022/11/13 05:48:38;;;;;;;;;22.50;19.25;;;;;11.27;100.00;101961.09;5099168;27;45557;-73
2022/11/13 05:51:09;;;;;;;;;21.75;18.00;;;;;11.28;100.00;101952.28;5099860;27;45563;-73
2022/11/13 05:53:35;;;;;;;;;25.75;20.00;;;;;11.31;100.00;101948.84;5118531;27;45438;-74
2022/11/13 05:56:02;;;;;;;;;25.50;18.25;;;;;11.32;100.00;101940.06;5118565;27;46285;-73
2022/11/13 05:58:28;;;;;;;;;17.75;14.00;;;;;11.31;100.00;101934.72;5118377;27;45203;-74
2022/11/13 06:01:12;;;;;;;;;20.50;15.25;;;;;11.31;100.00;101934.72;5118645;27;45417;-73
2022/11/13 06:03:37;;;;;;;;;20.00;15.00;;;;;11.30;100.00;101932.94;5113224;27;45231;-73
2022/11/13 06:06:04;;;;;;;;;15.75;14.00;;;;;11.26;100.00;101934.59;5099730;27;45698;-74
2022/11/13 06:08:30;;;;;;;;;16.25;14.25;;;;;11.27;100.00;101929.34;5103410;27;45455;-76
2022/11/13 06:11:00;;;;;;;;;21.75;15.25;;;;;11.23;100.00;101927.47;5116812;27;45297;-75
2022/11/13 06:13:25;;;;;;;;;19.00;15.25;;;;;11.20;100.00;101914.19;5118833;27;45337;-73
2022/11/13 06:15:50;;;;;;;;;21.75;16.00;;;;;11.19;100.00;101919.47;5104309;27;46846;-73
2022/11/13 06:18:23;;;;;;;;;18.75;17.00;;;;;11.13;100.00;101913.97;5108070;27;67789;-73
2022/11/13 06:20:48;;;;;;;;;20.75;15.50;;;;;11.12;100.00;101917.50;5118697;27;45270;-75
2022/11/13 06:23:13;;;;;;;;;16.00;14.00;;;;;11.06;100.00;101910.28;5100023;27;45937;-74
2022/11/13 06:25:39;;;;;;;;;15.75;12.75;;;;;11.04;100.00;101909.38;5117088;27;65577;-74
2022/11/13 06:28:04;;;;;;;;;17.75;15.00;;;;;11.00;100.00;101910.13;5117101;27;61050;-73
2022/11/13 06:30:29;;;;;;;;;19.00;16.50;;;;;10.95;100.00;101899.44;5099330;27;63180;-73
2022/11/13 06:32:55;;;;;;;;;18.25;15.00;;;;;10.93;100.00;101900.28;5117968;27;45558;-74
2022/11/13 06:35:20;;;;;;;;;18.25;14.75;;;;;10.89;100.00;101904.56;5117906;27;48181;-73
2022/11/13 06:37:46;;;;;;;;;17.75;14.00;;;;;10.84;100.00;101900.91;5116912;27;63817;-73
2022/11/13 06:40:12;;;;;;;;;16.50;15.50;;;;;10.83;100.00;101907.03;5105409;27;45680;-73
2022/11/13 06:42:37;;;;;;;;;18.75;15.50;;;;;10.80;100.00;101903.41;5107794;27;45251;-73
2022/11/13 06:45:03;;;;;;;;;17.00;11.25;;;;;10.78;100.00;101902.50;5098919;27;45349;-74
2022/11/13 06:47:28;;;;;;;;;14.25;11.50;;;;;10.78;100.00;101897.22;5117367;27;45433;-73
2022/11/13 06:49:54;;;;;;;;;16.75;13.00;;;;;10.75;100.00;101898.00;5116657;27;59545;-73
2022/11/13 06:52:19;;;;;;;;;18.25;15.25;;;;;10.72;100.00;101893.53;5115874;27;57417;-73
2022/11/13 06:54:44;;;;;;;;;16.50;15.00;;;;;10.72;100.00;101896.19;5112449;27;49938;-74
2022/11/13 06:57:10;;;;;;;;;19.00;15.00;;;;;10.68;100.00;101890.78;5116867;27;67685;-73
2022/11/13 06:59:35;;;;;;;;;13.50;10.50;;;;;10.66;100.00;101888.09;5117491;27;60476;-73
2022/11/13 07:02:01;;;;;;;;;12.25;12.00;;;;;10.64;100.00;101895.06;5116675;27;45438;-75
2022/11/13 07:04:26;;;;;;;;;13.75;10.50;;;;;10.62;100.00;101895.88;5096179;27;45682;-73
2022/11/13 07:06:51;;;;;;;;;14.00;14.00;;;;;10.58;100.00;101888.72;5116869;27;63081;-74
2022/11/13 07:09:17;;;;;;;;;14.00;14.00;;;;;10.59;100.00;101893.16;5117151;27;52563;-73
2022/11/13 07:11:42;;;;;;;;;14.50;14.50;;;;;10.56;100.00;101887.81;5117235;27;61022;-73
2022/11/13 07:14:10;;;;;;;;;16.75;12.00;;;;;10.57;100.00;101895.75;5116088;27;60639;-74
2022/11/13 07:16:36;;;;;;;;;12.00;10.00;;;;;10.54;100.00;101889.47;5117701;27;45316;-74
2022/11/13 07:19:01;;;;;;;;;14.00;12.25;;;;;10.53;100.00;101906.19;5114393;27;54451;-74
2022/11/13 07:21:26;;;;;;;;;13.25;11.00;;;;;10.53;100.00;101909.72;5116717;27;58010;-75
2022/11/13 07:23:52;;;;;;;;;16.00;12.75;;;;;10.49;100.00;101898.19;5116625;27;64967;-73
2022/11/13 07:26:17;;;;;;;;;14.00;12.00;;;;;10.51;100.00;101906.16;5116843;27;45385;-75
2022/11/13 07:28:43;;;;;;;;;12.50;12.25;;;;;10.49;100.00;101902.56;5117535;27;45448;-74
2022/11/13 07:31:10;;;;;;;;;15.00;12.00;;;;;10.49;100.00;101900.84;5117646;27;45430;-73
2022/11/13 07:33:35;;;;;;;;;14.25;12.75;;;;;10.47;100.00;101902.53;5114622;27;45539;-73
2022/11/13 07:36:01;;;;;;;;;18.75;10.00;;;;;10.46;100.00;101899.84;5111076;27;52817;-73
2022/11/13 07:38:26;;;;;;;;;18.00;14.25;;;;;10.45;100.00;101895.44;5116753;27;49753;-73
2022/11/13 07:40:51;;;;;;;;;15.25;13.50;;;;;10.44;100.00;101885.72;5116174;27;50182;-73
2022/11/13 07:43:17;;;;;;;;;7.50;7.25;;;;;10.41;100.00;101893.53;5113728;27;46699;-75
2022/11/13 07:45:42;;;;;;;;;13.75;13.00;;;;;10.40;100.00;101887.38;5116610;27;45452;-73
2022/11/13 07:48:09;;;;;;;;;14.50;12.75;;;;;10.39;100.00;101877.66;5117022;27;45440;-74
2022/11/13 07:50:35;;;;;;;;;16.75;12.50;;;;;10.43;100.00;101889.19;5133362;27;45347;-73
2022/11/13 07:53:04;;;;;;;;;11.00;10.50;;;;;10.42;100.00;101888.28;5117059;27;45988;-74
2022/11/13 07:55:29;;;;;;;;;14.00;10.00;;;;;10.42;100.00;101884.75;5133018;27;45542;-75
2022/11/13 07:57:58;;;;;;;;;15.25;14.00;;;;;10.45;100.00;101892.78;5117098;27;45518;-73
2022/11/13 08:00:29;;;;;;;;;15.25;11.75;;;;;10.44;100.00;101886.59;5115725;27;45557;-74
2022/11/13 08:02:54;;;;;;;;;13.25;12.25;;;;;10.45;100.00;101875.19;5113455;27;46754;-73
2022/11/13 08:05:20;;;;;;;;;12.75;12.75;;;;;10.46;100.00;101879.63;5115454;27;60914;-73
2022/11/13 08:07:50;;;;;;;;;19.75;14.00;;;;;10.48;100.00;101877.00;5117742;27;45544;-73
2022/11/13 08:10:16;;;;;;;;;18.00;13.50;;;;;10.47;100.00;101868.19;5120473;27;45215;-72
2022/11/13 08:12:42;;;;;;;;;17.25;14.00;;;;;10.50;100.00;101870.03;5120371;27;45511;-75
2022/11/13 08:15:08;;;;;;;;;18.00;14.00;;;;;10.54;100.00;101865.72;5119829;27;45294;-73
2022/11/13 08:17:33;;;;;;;;;16.50;13.50;;;;;10.56;100.00;101864.94;5119573;27;45352;-73
2022/11/13 08:19:58;;;;;;;;;13.25;12.50;;;;;10.57;100.00;101857.91;5120387;27;57159;-73
2022/11/13 08:22:24;;;;;;;;;19.25;17.25;;;;;10.59;100.00;101857.06;5118284;27;65210;-74
2022/11/13 08:24:52;;;;;;;;;21.00;16.00;;;;;10.65;100.00;101856.34;5120776;27;45471;-73
2022/11/13 08:27:18;;;;;;;;;15.25;15.25;;;;;10.66;100.00;101851.13;5120665;27;45492;-73
2022/11/13 08:29:43;;;;;;;;;27.25;20.75;;;;;10.69;100.00;101843.25;5119748;27;45550;-75
2022/11/13 08:32:09;;;;;;;;;22.50;15.75;;;;;10.74;100.00;101848.66;5119547;27;69751;-74
2022/11/13 08:34:36;;;;;;;;;23.50;20.00;;;;;10.74;100.00;101843.38;5119389;27;45200;-74
2022/11/13 08:37:01;;;;;;;;;19.75;15.75;;;;;10.80;100.00;101837.38;5119904;27;45488;-73
2022/11/13 08:39:26;;;;;;;;;26.50;20.00;;;;;10.83;100.00;101838.34;5118613;27;58505;-76
2022/11/13 08:41:52;;;;;;;;;17.50;16.00;;;;;10.88;100.00;101838.47;5112432;27;63173;-73
2022/11/13 08:44:17;;;;;;;;;22.25;18.25;;;;;10.92;100.00;101832.38;5119140;27;49711;-73
2022/11/13 08:46:42;;;;;;;;;23.50;20.75;;;;;10.93;100.00;101832.47;5119359;27;45354;-73
2022/11/13 08:49:08;;;;;;;;;22.00;20.50;;;;;10.93;100.00;101823.63;5100131;27;45630;-75
2022/11/13 08:51:33;;;;;;;;;22.00;17.25;;;;;10.96;100.00;101827.22;5116030;27;46378;-74
2022/11/13 08:53:58;;;;;;;;;22.00;20.25;;;;;10.97;100.00;101833.41;5118734;27;63773;-76
2022/11/13 08:56:24;;;;;;;;;19.75;18.00;;;;;11.00;100.00;101822.94;5118614;27;49728;-75
2022/11/13 08:58:49;;;;;;;;;20.00;17.50;;;;;11.01;100.00;101820.31;5117502;27;59371;-74
2022/11/13 09:01:15;;;;;;;;;17.50;17.50;;;;;11.08;100.00;101826.66;5118777;27;62980;-76
2022/11/13 09:03:41;;;;;;;;;20.50;17.50;;;;;11.09;100.00;101830.19;5095235;27;45527;-76
2022/11/13 09:06:07;;;;;;;;;16.50;12.50;;;;;11.13;100.00;101830.31;5093860;27;46459;-75
2022/11/13 09:08:32;;;;;;;;;21.00;19.00;;;;;11.15;100.00;101823.31;5112982;27;45503;-73
2022/11/13 09:11:02;;;;;;;;;24.25;21.00;;;;;11.21;100.00;101825.22;5109562;27;53680;-73
2022/11/13 09:13:27;;;;;;;;;25.00;20.50;;;;;11.23;100.00;101815.56;5086720;27;45568;-74
2022/11/13 09:15:52;;;;;;;;;20.75;20.00;;;;;11.28;100.00;101828.03;5107017;27;45589;-73
2022/11/13 09:18:18;;;;;;;;;25.75;19.50;;;;;11.32;100.00;101817.53;5106685;27;56900;-75
2022/11/13 09:20:43;;;;;;;;;25.00;22.75;;;;;11.35;100.00;101825.56;5104827;27;63200;-73
2022/11/13 09:23:08;;;;;;;;;28.75;19.75;;;;;11.37;100.00;101821.19;5107203;27;60854;-72
2022/11/13 09:25:35;;;;;;;;;19.50;19.25;;;;;11.39;100.00;101812.41;5105376;27;62990;-74
2022/11/13 09:28:01;;;;;;;;;21.00;20.75;;;;;11.45;100.00;101812.59;5086323;27;45503;-73
2022/11/13 09:30:28;;;;;;;;;26.00;20.50;;;;;11.48;100.00;101802.06;5111639;27;46605;-74
2022/11/13 09:32:56;;;;;;;;;20.50;17.25;;;;;11.50;100.00;101797.72;5091477;27;45324;-76
2022/11/13 09:35:32;;;;;;;;;24.75;21.00;;;;;11.55;100.00;101796.03;5109784;27;45336;-75
2022/11/13 09:38:01;;;;;;;;;24.00;22.25;;;;;11.62;100.00;101799.72;5106807;27;45668;-73
2022/11/13 09:40:48;;;;;;;;;19.75;19.25;;;;;11.65;100.00;101793.59;5102470;27;45555;-76
2022/11/13 09:43:29;;;;;;;;;21.50;20.25;;;;;11.71;100.00;101799.03;5106297;27;45505;-73
2022/11/13 09:46:03;;;;;;;;;22.25;19.00;;;;;11.74;100.00;101796.47;5117271;27;45765;-73
2022/11/13 09:48:28;;;;;;;;;22.50;22.50;;;;;11.79;100.00;101793.03;5116634;27;45481;-74
2022/11/13 09:50:55;;;;;;;;;26.25;22.50;;;;;11.81;100.00;101785.13;5110409;27;45838;-73
2022/11/13 09:53:21;;;;;;;;;23.25;23.00;;;;;11.84;100.00;101774.66;5098332;27;45520;-72
2022/11/13 09:56:18;;;;;;;;;24.00;20.25;;;;;11.93;100.00;101784.53;5099220;27;45567;-74
2022/11/13 09:59:01;;;;;;;;;25.75;22.00;;;;;11.97;100.00;101784.63;5099532;27;45483;-72
2022/11/13 10:02:16;;;;;;;;;24.00;19.75;;;;;12.03;100.00;101783.84;5090065;27;46600;-76
2022/11/13 10:05:03;;;;;;;;;31.50;19.50;;;;;12.09;100.00;101781.34;5062133;27;45492;-75
2022/11/13 10:07:34;;;;;;;;;16.00;14.00;;;;;12.14;100.00;101789.38;5088357;27;45446;-75
2022/11/13 10:10:30;;;;;;;;;22.25;18.00;;;;;12.20;100.00;101786.88;5118083;27;45353;-74
2022/11/13 10:12:58;;;;;;;;;19.25;17.00;;;;;12.24;100.00;101780.75;5115034;27;45853;-73
2022/11/13 10:15:24;;;;;;;;;20.75;18.50;;;;;12.28;100.00;101769.34;5093762;27;45395;-74
2022/11/13 10:17:54;;;;;;;;;22.75;18.50;;;;;12.33;100.00;101778.28;5095797;27;45531;-74
2022/11/13 10:20:33;;;;;;;;;23.00;20.75;;;;;12.36;100.00;101766.84;5111973;27;45538;-74
2022/11/13 10:23:10;;;;;;;;;21.50;18.75;;;;;12.42;100.00;101774.91;5098040;27;46859;-74
2022/11/13 10:25:36;;;;;;;;;20.25;20.25;;;;;12.47;100.00;101766.19;5094752;27;45507;-73
2022/11/13 10:28:11;;;;;;;;;19.50;18.00;;;;;12.51;100.00;101762.72;5107087;27;45570;-73
2022/11/13 10:30:38;;;;;;;;;21.75;21.25;;;;;12.55;100.00;101753.97;5090441;27;46164;-75
2022/11/13 10:33:07;;;;;;;;;23.00;20.25;;;;;12.63;100.00;101762.06;5092172;27;46869;-73
2022/11/13 10:35:40;;;;;;;;;23.75;18.25;;;;;12.69;100.00;101762.16;5092480;27;47062;-73
2022/11/13 10:38:17;;;;;;;;;19.00;18.75;;;;;12.72;100.00;101751.59;5103567;27;45522;-72
2022/11/13 10:40:43;;;;;;;;;24.75;19.75;;;;;12.74;100.00;101749.88;5107758;27;45464;-74
2022/11/13 10:43:17;;;;;;;;;22.75;21.25;;;;;12.79;100.00;101748.22;5106960;27;65828;-73
2022/11/13 10:45:56;;;;;;;;;21.75;21.00;;;;;12.83;100.00;101743.81;5087833;27;45367;-75
2022/11/13 10:48:28;;;;;;;;;22.50;18.00;;;;;12.92;100.00;101743.97;5105723;27;45482;-74
2022/11/13 10:50:59;;;;;;;;;23.00;19.00;;;;;12.96;100.00;101729.03;5086998;27;45502;-73
2022/11/13 10:53:27;;;;;;;;;27.00;22.25;;;;;13.03;100.00;101726.47;5088467;27;48871;-72
2022/11/13 10:55:56;;;;;;;;;23.50;19.00;;;;;13.06;100.00;101729.19;5099675;27;45502;-74
2022/11/13 10:58:22;;;;;;;;;25.75;20.00;;;;;13.13;100.00;101723.97;5095808;27;45667;-72
2022/11/13 11:00:48;;;;;;;;;22.25;22.00;;;;;13.17;100.00;101717.84;5105441;27;45590;-74